Time;durP1;ratioP1;P1;durP2;ratioP2;P2;SDS_P1;SDS_P2;PMS_P1;PMS_P2;Temp;Humidity;BMP_temperature;BMP_pressure;BME280_temperature;BME280_humidity;BME280_pressure;Samples;Min_cycle;Max_cycle;Signal;HPM_P1;HPM_P2
2023/11/08 00:01:34;;;;;;;15.00;5.07;;;;;;;16.98;56.93;98988.44;4985956;28;20031;-75
2023/11/08 00:03:59;;;;;;;8.00;4.65;;;;;;;16.99;56.82;98983.97;4996464;28;20029;-75
2023/11/08 00:06:26;;;;;;;12.18;4.97;;;;;;;16.94;56.84;98968.63;4978850;28;20038;-75
2023/11/08 00:08:52;;;;;;;8.65;3.88;;;;;;;16.94;56.90;98976.53;4995230;28;20026;-75
2023/11/08 00:11:20;;;;;;;11.57;4.15;;;;;;;16.96;56.97;98979.00;4996321;28;20037;-75
2023/11/08 00:13:45;;;;;;;14.18;3.75;;;;;;;16.95;57.17;98977.34;4995179;28;20035;-76
2023/11/08 00:16:11;;;;;;;9.48;3.65;;;;;;;16.94;57.07;98976.53;4995114;28;20041;-75
2023/11/08 00:18:36;;;;;;;8.65;3.40;;;;;;;16.88;57.05;98966.59;4996141;28;20026;-76
2023/11/08 00:21:02;;;;;;;8.60;3.65;;;;;;;16.91;56.97;98962.81;4996233;28;20042;-75
2023/11/08 00:23:27;;;;;;;15.30;3.08;;;;;;;16.87;57.08;98953.56;4997120;28;20081;-75
2023/11/08 00:25:53;;;;;;;9.27;3.00;;;;;;;16.89;57.08;98964.75;4978037;28;20038;-75
2023/11/08 00:28:18;;;;;;;8.50;2.50;;;;;;;16.85;57.07;98955.50;4995989;28;20035;-75
2023/11/08 00:30:44;;;;;;;10.15;2.85;;;;;;;16.83;57.02;98948.56;4961866;28;20042;-76
2023/11/08 00:33:09;;;;;;;5.75;2.25;;;;;;;16.83;57.13;98964.38;4978696;28;20105;-75
2023/11/08 00:35:35;;;;;;;6.53;2.63;;;;;;;16.84;57.10;98954.66;4978454;28;20509;-75
2023/11/08 00:38:02;;;;;;;8.30;2.15;;;;;;;16.82;57.05;98949.56;4994827;28;20026;-76
2023/11/08 00:40:27;;;;;;;8.02;2.25;;;;;;;16.80;56.96;98948.84;4978700;28;20061;-75
2023/11/08 00:42:53;;;;;;;7.05;2.40;;;;;;;16.77;57.23;98951.78;4995796;28;20033;-76
2023/11/08 00:45:18;;;;;;;6.70;2.10;;;;;;;16.76;57.25;98938.75;4995740;28;20093;-76
2023/11/08 00:47:44;;;;;;;10.60;2.38;;;;;;;16.74;57.43;98935.47;4964326;28;20078;-76
2023/11/08 00:50:10;;;;;;;10.20;3.38;;;;;;;16.71;57.66;98925.22;4997770;28;20038;-76
2023/11/08 00:52:36;;;;;;;6.05;2.08;;;;;;;16.71;57.51;98918.13;5015586;28;20092;-76
2023/11/08 00:55:05;;;;;;;6.00;1.90;;;;;;;16.70;57.43;98921.75;4982119;28;20061;-76
2023/11/08 00:57:31;;;;;;;10.48;2.33;;;;;;;16.71;57.55;98918.13;4981946;28;20022;-76
2023/11/08 00:59:57;;;;;;;10.68;2.47;;;;;;;16.71;57.63;98918.13;4998157;28;20103;-75
2023/11/08 01:02:22;;;;;;;4.82;2.03;;;;;;;16.68;57.76;98912.34;4997548;28;20030;-75
2023/11/08 01:04:48;;;;;;;8.32;2.60;;;;;;;16.70;57.89;98913.84;4997466;28;20068;-75
2023/11/08 01:07:13;;;;;;;6.43;2.20;;;;;;;16.67;57.81;98900.97;4997434;28;20033;-75
2023/11/08 01:09:39;;;;;;;5.00;1.70;;;;;;;16.69;57.95;98898.19;4980318;28;20046;-75
2023/11/08 01:12:05;;;;;;;7.63;2.03;;;;;;;16.64;57.79;98886.28;4997371;28;20504;-75
2023/11/08 01:14:32;;;;;;;9.43;2.22;;;;;;;16.67;58.08;98892.22;4981249;28;20042;-75
2023/11/08 01:16:58;;;;;;;7.88;2.38;;;;;;;16.67;58.09;98889.59;4981158;28;20440;-75
2023/11/08 01:19:25;;;;;;;11.00;2.55;;;;;;;16.67;58.11;98887.78;4997251;28;20117;-76
2023/11/08 01:21:51;;;;;;;9.27;2.33;;;;;;;16.62;58.07;98880.34;4997188;28;20046;-75
2023/11/08 01:24:16;;;;;;;5.55;1.90;;;;;;;16.65;58.11;98871.28;4980811;28;20045;-75
2023/11/08 01:26:42;;;;;;;10.85;2.47;;;;;;;16.64;58.22;98874.94;4997199;28;20385;-75
2023/11/08 01:29:07;;;;;;;6.40;2.05;;;;;;;16.64;58.18;98886.28;4997002;28;20029;-75
2023/11/08 01:31:33;;;;;;;10.23;2.22;;;;;;;16.64;58.34;98885.47;4995998;28;20041;-75
2023/11/08 01:33:59;;;;;;;10.15;2.25;;;;;;;16.63;58.19;98887.28;5014091;28;20088;-75
2023/11/08 01:36:24;;;;;;;10.30;2.50;;;;;;;16.56;58.38;98873.03;4997245;28;20025;-75
2023/11/08 01:38:50;;;;;;;8.85;2.20;;;;;;;16.55;58.25;98874.00;4996927;28;20033;-75
2023/11/08 01:41:15;;;;;;;4.90;1.83;;;;;;;16.57;58.25;98879.97;4997181;28;20034;-75
2023/11/08 01:43:41;;;;;;;5.47;2.03;;;;;;;16.56;58.14;98877.50;4980901;28;20069;-76
2023/11/08 01:46:07;;;;;;;7.00;2.55;;;;;;;16.56;58.35;98882.78;4996937;28;20026;-75
2023/11/08 01:48:33;;;;;;;11.25;2.58;;;;;;;16.60;58.23;98889.38;4996522;28;20168;-76
2023/11/08 01:50:59;;;;;;;7.57;2.63;;;;;;;16.59;58.17;98882.47;4996658;28;20488;-75
2023/11/08 01:53:28;;;;;;;8.50;2.10;;;;;;;16.53;58.28;98865.44;5014097;28;20038;-75
2023/11/08 01:55:53;;;;;;;;;;;;;;;16.57;58.30;98866.81;4965112;28;20481;-75
2023/11/08 01:58:19;;;;;;;7.57;2.40;;;;;;;16.54;58.48;98859.19;4980308;28;19920;-75
2023/11/08 02:00:45;;;;;;;8.27;2.05;;;;;;;16.52;58.41;98853.22;4980356;28;20650;-75
2023/11/08 02:03:11;;;;;;;6.13;2.03;;;;;;;16.52;58.29;98847.97;4980325;28;20038;-75
2023/11/08 02:05:36;;;;;;;8.23;2.42;;;;;;;16.52;58.21;98847.16;4979395;28;20038;-76
2023/11/08 02:08:02;;;;;;;9.50;2.58;;;;;;;16.46;58.26;98849.41;4979448;28;20049;-75
2023/11/08 02:10:27;;;;;;;6.28;2.00;;;;;;;16.43;58.16;98844.44;4980274;28;20455;-75
2023/11/08 02:12:53;;;;;;;6.72;2.10;;;;;;;16.46;58.21;98845.94;4996129;28;20037;-75
2023/11/08 02:15:19;;;;;;;7.43;2.38;;;;;;;16.42;58.27;98845.41;5013998;28;20037;-75
2023/11/08 02:17:44;;;;;;;7.28;2.33;;;;;;;16.44;58.26;98847.91;4979799;28;20041;-75
2023/11/08 02:20:10;;;;;;;7.85;2.17;;;;;;;16.43;58.33;98851.50;4996008;28;20042;-75
2023/11/08 02:22:36;;;;;;;8.85;2.10;;;;;;;16.39;58.20;98845.72;4974813;28;20050;-75
2023/11/08 02:25:04;;;;;;;7.32;2.08;;;;;;;16.43;58.11;98851.50;4992664;28;20414;-75
2023/11/08 02:27:29;;;;;;;8.55;2.63;;;;;;;16.43;58.02;98862.03;4960781;28;20046;-75
2023/11/08 02:29:55;;;;;;;5.82;2.10;;;;;;;16.35;58.14;98849.66;4992622;28;20049;-75
2023/11/08 02:32:20;;;;;;;8.45;2.15;;;;;;;16.37;58.06;98863.50;4975724;28;20053;-75
2023/11/08 02:34:46;;;;;;;8.98;2.53;;;;;;;16.34;58.22;98855.91;4993768;28;20425;-75
2023/11/08 02:37:11;;;;;;;7.28;2.55;;;;;;;16.33;58.11;98848.97;4992668;28;20026;-75
2023/11/08 02:39:37;;;;;;;7.57;2.60;;;;;;;16.31;58.21;98845.66;4993930;28;20051;-75
2023/11/08 02:42:02;;;;;;;7.43;2.28;;;;;;;16.29;57.96;98839.72;4992432;28;20034;-75
2023/11/08 02:44:28;;;;;;;6.85;2.28;;;;;;;16.28;58.29;98838.88;4992641;28;20125;-75
2023/11/08 02:46:53;;;;;;;5.15;2.00;;;;;;;16.27;58.25;98839.88;4992062;28;20033;-75
2023/11/08 02:49:19;;;;;;;9.52;2.53;;;;;;;16.25;58.25;98847.06;4993512;28;20382;-75
2023/11/08 02:51:44;;;;;;;6.43;2.33;;;;;;;16.21;58.23;98844.91;4992773;28;20523;-75
2023/11/08 02:54:10;;;;;;;5.85;2.08;;;;;;;16.18;58.24;98840.78;4991810;28;20041;-75
2023/11/08 02:56:40;;;;;;;9.93;2.17;;;;;;;16.18;58.21;98832.06;4976325;28;20033;-75
2023/11/08 02:59:06;;;;;;;6.70;2.45;;;;;;;16.19;58.06;98857.38;4976396;28;20497;-75
2023/11/08 03:01:32;;;;;;;7.32;2.83;;;;;;;16.16;58.12;98863.81;4993542;28;20049;-75
2023/11/08 03:03:58;;;;;;;7.53;2.85;;;;;;;16.16;58.15;98871.72;4992181;28;20022;-77
2023/11/08 03:06:24;;;;;;;8.63;2.38;;;;;;;16.13;58.09;98866.75;4975710;28;20038;-76
2023/11/08 03:08:49;;;;;;;3.80;2.08;;;;;;;16.13;58.00;98855.34;4993261;28;20034;-76
2023/11/08 03:11:15;;;;;;;7.85;2.58;;;;;;;16.10;57.98;98851.22;4991846;28;20038;-76
2023/11/08 03:13:40;;;;;;;7.18;2.13;;;;;;;16.13;57.95;98864.09;4992054;28;20030;-76
2023/11/08 03:16:06;;;;;;;10.45;2.35;;;;;;;16.09;57.89;98871.44;4992955;28;20038;-75
2023/11/08 03:18:32;;;;;;;11.55;2.95;;;;;;;16.09;57.97;98865.38;4976072;28;20037;-75
2023/11/08 03:20:57;;;;;;;7.28;2.25;;;;;;;16.05;58.06;98856.09;4993425;28;20046;-75
2023/11/08 03:23:23;;;;;;;6.28;2.33;;;;;;;16.10;57.92;98861.75;4975252;28;20472;-75
2023/11/08 03:25:49;;;;;;;5.95;2.42;;;;;;;16.04;57.84;98846.56;4993023;28;20034;-75
2023/11/08 03:28:14;;;;;;;9.68;2.45;;;;;;;16.06;57.94;98845.41;4991931;28;20037;-75
2023/11/08 03:30:39;;;;;;;6.43;2.20;;;;;;;16.07;57.85;98846.25;4991657;28;20496;-75
2023/11/08 03:33:06;;;;;;;5.30;2.58;;;;;;;16.03;57.75;98839.63;4992943;28;20093;-74
2023/11/08 03:35:32;;;;;;;6.22;2.53;;;;;;;16.02;57.85;98838.81;4976075;28;20030;-75
2023/11/08 03:37:57;;;;;;;7.45;2.35;;;;;;;16.02;57.76;98837.97;4992909;28;20489;-75
2023/11/08 03:40:23;;;;;;;8.05;2.88;;;;;;;15.99;57.77;98833.84;4992696;28;20030;-75
2023/11/08 03:42:48;;;;;;;7.45;2.67;;;;;;;15.97;57.83;98829.69;4992914;28;20038;-75
2023/11/08 03:45:14;;;;;;;11.73;2.90;;;;;;;16.00;57.87;98829.41;4975710;28;20034;-75
2023/11/08 03:47:39;;;;;;;7.63;2.47;;;;;;;15.95;57.89;98829.84;4991867;28;20119;-75
2023/11/08 03:50:05;;;;;;;6.57;2.08;;;;;;;15.94;57.94;98836.09;4975520;28;20086;-75
2023/11/08 03:52:31;;;;;;;12.02;2.50;;;;;;;15.97;57.94;98842.84;4991829;28;20035;-75
2023/11/08 03:54:57;;;;;;;6.20;2.22;;;;;;;15.91;58.00;98831.13;4991842;28;20027;-75
2023/11/08 03:57:23;;;;;;;8.95;2.80;;;;;;;15.90;58.00;98822.38;4974980;28;20042;-76
2023/11/08 03:59:53;;;;;;;9.80;2.60;;;;;;;15.91;58.12;98826.69;4991057;28;20033;-76
2023/11/08 04:02:20;;;;;;;7.68;2.28;;;;;;;15.93;58.03;98834.44;4990753;28;20034;-75
2023/11/08 04:04:46;;;;;;;9.40;2.45;;;;;;;15.93;58.15;98829.16;4974412;28;20452;-75
2023/11/08 04:07:12;;;;;;;5.50;2.33;;;;;;;15.91;58.15;98839.84;4991109;28;20030;-75
2023/11/08 04:09:41;;;;;;;10.70;2.38;;;;;;;15.91;58.41;98828.50;4991353;28;20023;-75
2023/11/08 04:12:08;;;;;;;11.07;2.78;;;;;;;15.85;58.43;98821.19;4975642;28;20030;-75
2023/11/08 04:14:34;;;;;;;7.97;2.60;;;;;;;15.87;58.49;98825.31;4980897;28;20105;-75
2023/11/08 04:17:00;;;;;;;9.75;2.60;;;;;;;15.84;58.41;98832.69;4982996;28;20376;-75
2023/11/08 04:19:26;;;;;;;9.15;2.20;;;;;;;15.80;58.57;98824.28;4974357;28;20493;-75
2023/11/08 04:21:51;;;;;;;6.45;2.55;;;;;;;15.81;58.39;98831.16;4977719;28;20137;-77
2023/11/08 04:24:17;;;;;;;8.38;2.60;;;;;;;15.83;58.21;98836.28;4958918;28;20391;-75
2023/11/08 04:26:43;;;;;;;5.55;2.67;;;;;;;15.80;58.43;98828.72;4985609;28;20031;-75
2023/11/08 04:29:09;;;;;;;9.73;3.50;;;;;;;15.79;58.51;98830.50;4966882;28;20031;-75
2023/11/08 04:31:34;;;;;;;6.53;2.28;;;;;;;15.81;58.44;98840.88;4974410;28;20465;-76
2023/11/08 04:34:00;;;;;;;9.40;3.75;;;;;;;15.81;58.40;98836.44;4990936;28;20038;-77
2023/11/08 04:36:26;;;;;;;11.50;5.22;;;;;;;15.80;58.58;98823.44;4975021;28;20030;-77
2023/11/08 04:38:53;;;;;;;15.75;8.38;;;;;;;15.80;58.39;98823.44;4990848;28;20061;-77
2023/11/08 04:41:19;;;;;;;19.83;11.32;;;;;;;15.78;58.26;98826.22;4958763;28;20476;-73
2023/11/08 04:43:45;;;;;;;17.85;8.68;;;;;;;15.81;60.84;98810.13;4971030;28;20130;-80
2023/11/08 04:46:11;;;;;;;8.60;2.28;;;;;;;16.51;65.73;98813.88;4952850;28;20053;-86
2023/11/08 04:48:40;;;;;;;9.68;3.22;;;;;;;16.92;64.06;98806.25;4994599;28;20465;-79
2023/11/08 04:51:06;;;;;;;9.50;3.85;;;;;;;17.30;62.49;98812.06;4977907;28;20034;-77
2023/11/08 04:53:31;;;;;;;8.55;3.35;;;;;;;17.60;61.19;98812.50;4993833;28;20416;-77
2023/11/08 04:55:57;;;;;;;13.27;3.97;;;;;;;17.79;60.54;98814.88;4994337;28;20041;-73
2023/11/08 04:58:22;;;;;;;7.25;2.60;;;;;;;17.88;58.28;98821.88;4978035;28;20092;-77
2023/11/08 05:00:48;;;;;;;7.15;3.30;;;;;;;17.58;57.13;98819.75;4992530;28;20512;-74
2023/11/08 05:03:16;;;;;;;9.45;2.90;;;;;;;17.49;59.40;98818.88;5013759;28;20045;-84
2023/11/08 05:05:42;;;;;;;9.18;2.67;;;;;;;17.29;57.40;98826.25;4978975;28;20505;-83
2023/11/08 05:08:08;;;;;;;6.82;3.00;;;;;;;17.12;57.17;98833.25;4981985;28;20035;-77
2023/11/08 05:10:34;;;;;;;9.80;2.63;;;;;;;16.90;57.31;98827.50;4947860;28;20073;-77
2023/11/08 05:13:02;;;;;;;6.35;2.60;;;;;;;17.07;61.73;98825.81;4986407;28;20037;-81
2023/11/08 05:15:29;;;;;;;7.05;2.47;;;;;;;17.05;59.95;98826.97;4994237;28;20045;-83
2023/11/08 05:17:55;;;;;;;6.32;2.88;;;;;;;16.97;59.58;98819.81;4978180;28;20031;-83
2023/11/08 05:20:22;;;;;;;7.93;2.63;;;;;;;16.92;58.91;98814.16;4978092;28;20034;-83
2023/11/08 05:22:49;;;;;;;11.13;2.78;;;;;;;16.87;58.62;98814.63;4961842;28;20106;-84
2023/11/08 05:25:14;;;;;;;5.15;2.17;;;;;;;16.83;58.38;98816.72;4977850;28;20043;-81
2023/11/08 05:27:40;;;;;;;9.27;2.53;;;;;;;16.86;57.94;98820.91;4978061;28;20097;-81
2023/11/08 05:30:08;;;;;;;10.25;3.03;;;;;;;16.82;57.66;98809.81;4977579;28;20042;-80
2023/11/08 05:32:35;;;;;;;8.68;2.80;;;;;;;16.98;59.48;98814.41;4994355;28;20065;-84
2023/11/08 05:35:00;;;;;;;6.57;2.95;;;;;;;17.08;58.93;98827.47;4978710;28;20076;-79
2023/11/08 05:37:26;;;;;;;9.40;2.85;;;;;;;17.13;58.23;98834.91;4977208;28;20046;-80
2023/11/08 05:39:53;;;;;;;7.45;3.25;;;;;;;17.14;57.87;98833.91;4978008;28;20038;-84
2023/11/08 05:42:22;;;;;;;12.80;3.13;;;;;;;17.27;57.32;98831.69;4950337;28;20394;-76
2023/11/08 05:44:54;;;;;;;9.85;2.80;;;;;;;17.44;56.83;98821.19;4980373;28;20293;-73
2023/11/08 05:47:19;;;;;;;10.30;2.58;;;;;;;17.73;55.94;98834.81;4966660;28;20105;-75
2023/11/08 05:49:45;;;;;;;8.88;2.97;;;;;;;18.00;55.48;98821.56;4961127;28;20038;-75
2023/11/08 05:52:10;;;;;;;9.95;3.20;;;;;;;18.21;55.03;98816.59;4977151;28;20502;-75
2023/11/08 05:54:36;;;;;;;10.70;3.20;;;;;;;18.68;54.61;98816.94;4972748;28;20043;-70
2023/11/08 05:57:02;;;;;;;10.57;2.88;;;;;;;19.08;53.63;98809.94;4985868;28;20053;-73
2023/11/08 05:59:28;;;;;;;11.00;3.33;;;;;;;19.35;52.88;98816.63;4994632;28;20413;-73
2023/11/08 06:01:53;;;;;;;17.65;3.40;;;;;;;19.79;51.63;98823.25;4993637;28;20026;-73
2023/11/08 06:04:19;;;;;;;19.25;3.42;;;;;;;20.24;50.07;98814.50;4993269;28;20461;-72
2023/11/08 06:06:45;;;;;;;5.97;3.10;;;;;;;20.81;49.23;98833.59;4976763;28;20460;-73
2023/11/08 06:09:13;;;;;;;14.32;4.05;;;;;;;21.05;47.96;98840.50;4994184;28;20558;-72
2023/11/08 06:11:38;;;;;;;13.38;3.83;;;;;;;20.88;47.55;98842.47;4992877;28;20402;-73
2023/11/08 06:14:04;;;;;;;8.52;3.28;;;;;;;20.69;47.59;98848.31;4976882;28;20065;-73
2023/11/08 06:16:29;;;;;;;9.48;3.45;;;;;;;20.58;47.45;98858.28;4994189;28;20053;-73
2023/11/08 06:18:55;;;;;;;17.00;3.83;;;;;;;20.33;48.09;98849.72;4992891;28;20093;-73
2023/11/08 06:21:21;;;;;;;16.45;4.60;;;;;;;20.25;47.92;98847.94;4978488;28;20034;-73
2023/11/08 06:23:47;;;;;;;20.65;6.05;;;;;;;20.18;48.11;98856.78;4980305;28;20386;-74
2023/11/08 06:26:14;;;;;;;17.92;5.95;;;;;;;20.27;47.99;98845.13;4962801;28;20103;-73
2023/11/08 06:28:39;;;;;;;11.10;5.18;;;;;;;20.63;47.09;98835.72;4962851;28;20497;-74
2023/11/08 06:31:05;;;;;;;21.58;7.32;;;;;;;20.93;46.88;98852.56;4963415;28;20107;-74
2023/11/08 06:33:30;;;;;;;16.58;8.52;;;;;;;21.28;45.85;98837.72;5013179;28;20088;-72
2023/11/08 06:35:58;;;;;;;19.67;8.93;;;;;;;21.76;44.98;98834.69;5013306;28;20485;-75
2023/11/08 06:38:24;;;;;;;21.83;8.43;;;;;;;21.77;45.24;98833.66;4980085;28;20026;-75
2023/11/08 06:40:49;;;;;;;20.45;9.55;;;;;;;21.91;44.67;98829.31;4979314;28;20406;-73
2023/11/08 06:43:15;;;;;;;27.05;10.82;;;;;;;22.87;42.58;98820.19;4995986;28;20081;-73
2023/11/08 06:45:40;;;;;;;25.05;12.52;;;;;;;23.72;40.93;98825.31;4979427;28;20037;-73
2023/11/08 06:48:06;;;;;;;17.05;6.40;;;;;;;23.64;40.67;98826.31;4979041;28;20489;-72
2023/11/08 06:50:32;;;;;;;19.30;8.15;;;;;;;23.37;41.30;98828.06;5013020;28;20034;-75
2023/11/08 06:52:57;;;;;;;15.02;6.00;;;;;;;23.03;41.64;98829.69;4994903;28;20119;-75
2023/11/08 06:55:24;;;;;;;12.75;5.93;;;;;;;22.72;42.38;98829.09;5013001;28;20029;-73
2023/11/08 06:57:49;;;;;;;24.63;6.90;;;;;;;22.56;42.66;98827.50;5012848;28;20022;-73
2023/11/08 07:00:15;;;;;;;22.45;7.25;;;;;;;22.59;42.82;98829.78;5012909;28;20477;-73
2023/11/08 07:02:41;;;;;;;24.42;7.90;;;;;;;23.20;41.87;98825.72;4963002;28;20080;-73
2023/11/08 07:05:07;;;;;;;15.27;6.63;;;;;;;23.27;41.43;98821.25;5012818;28;20108;-73
2023/11/08 07:07:33;;;;;;;13.50;7.25;;;;;;;23.07;41.64;98829.13;4979023;28;20122;-74
2023/11/08 07:09:59;;;;;;;22.50;6.53;;;;;;;22.88;42.10;98830.63;4995347;28;20030;-73
2023/11/08 07:12:24;;;;;;;19.35;5.78;;;;;;;22.74;42.39;98832.38;4995261;28;20033;-72
2023/11/08 07:14:50;;;;;;;13.15;4.95;;;;;;;22.56;42.59;98829.34;5012596;28;20474;-73
2023/11/08 07:17:15;;;;;;;18.63;5.68;;;;;;;22.44;42.94;98817.59;4995036;28;20080;-74
2023/11/08 07:19:41;;;;;;;18.38;5.10;;;;;;;22.48;43.06;98816.19;4995007;28;20029;-73
2023/11/08 07:22:07;;;;;;;24.33;5.28;;;;;;;22.39;43.12;98816.34;4978874;28;20106;-72
2023/11/08 07:24:33;;;;;;;21.83;5.53;;;;;;;22.31;43.30;98811.16;4995218;28;20112;-74
2023/11/08 07:26:59;;;;;;;15.93;5.25;;;;;;;22.22;43.53;98810.44;4978291;28;20046;-72
2023/11/08 07:29:24;;;;;;;18.05;5.60;;;;;;;22.08;44.04;98794.56;4994805;28;20029;-72
2023/11/08 07:31:53;;;;;;;16.70;5.88;;;;;;;22.05;44.25;98809.03;4962708;28;20045;-73
2023/11/08 07:34:21;;;;;;;17.90;6.28;;;;;;;21.94;44.15;98809.53;5012417;28;20113;-73
2023/11/08 07:36:46;;;;;;;20.05;6.25;;;;;;;21.83;44.66;98809.00;4978780;28;20030;-73
2023/11/08 07:39:15;;;;;;;19.85;7.25;;;;;;;21.81;45.06;98811.03;4978439;28;20045;-73
2023/11/08 07:41:41;;;;;;;23.20;8.15;;;;;;;21.71;45.38;98807.03;4995474;28;20030;-73
2023/11/08 07:44:07;;;;;;;25.27;8.27;;;;;;;21.57;45.86;98795.44;4978525;28;20056;-76
2023/11/08 07:46:33;;;;;;;19.10;8.45;;;;;;;21.59;46.13;98802.22;4979032;28;20037;-75
2023/11/08 07:48:58;;;;;;;18.15;8.20;;;;;;;21.52;46.21;98792.50;4995237;28;20033;-73
2023/11/08 07:51:25;;;;;;;17.77;7.50;;;;;;;21.53;46.35;98800.28;4979222;28;20069;-73
2023/11/08 07:53:51;;;;;;;19.77;7.57;;;;;;;21.44;46.56;98806.69;4995077;28;20026;-77
2023/11/08 07:56:17;;;;;;;19.52;7.93;;;;;;;21.42;47.04;98809.53;4995142;28;20037;-75
2023/11/08 07:58:43;;;;;;;25.38;7.95;;;;;;;21.40;46.81;98805.44;5012401;28;20401;-74
2023/11/08 08:01:09;;;;;;;19.95;7.55;;;;;;;21.40;47.15;98794.81;4994893;28;20029;-73
2023/11/08 08:03:35;;;;;;;17.83;7.35;;;;;;;21.43;46.70;98795.25;5012292;28;20037;-73
2023/11/08 08:06:03;;;;;;;22.35;7.60;;;;;;;21.42;46.99;98806.06;4995187;28;20037;-74
2023/11/08 08:08:29;;;;;;;;;;;;;;;21.48;46.79;98803.50;4995776;28;20026;-75
2023/11/08 08:10:54;;;;;;;18.17;6.30;;;;;;;21.48;46.97;98802.66;5012930;28;19916;-76
2023/11/08 08:13:20;;;;;;;19.80;6.82;;;;;;;21.57;46.66;98809.56;4978792;28;20034;-75
2023/11/08 08:15:46;;;;;;;20.45;7.15;;;;;;;21.59;46.80;98801.41;4994815;28;20088;-74
2023/11/08 08:18:11;;;;;;;14.52;5.95;;;;;;;21.60;46.99;98798.56;4978369;28;20033;-75
2023/11/08 08:20:40;;;;;;;16.20;6.40;;;;;;;21.59;46.65;98796.09;4996880;28;20034;-74
2023/11/08 08:23:09;;;;;;;20.55;6.40;;;;;;;21.67;46.97;98795.97;4998541;28;20068;-74
2023/11/08 08:25:41;;;;;;;13.05;5.85;;;;;;;21.72;46.93;98787.44;4982096;28;20038;-73
2023/11/08 08:28:07;;;;;;;15.88;5.88;;;;;;;21.78;46.89;98798.13;4965874;28;20120;-73
2023/11/08 08:30:34;;;;;;;20.15;6.25;;;;;;;21.83;46.91;98801.03;4998128;28;20513;-76
2023/11/08 08:33:01;;;;;;;12.63;5.03;;;;;;;21.80;46.90;98811.22;4966018;28;20038;-74
2023/11/08 08:35:30;;;;;;;11.88;4.88;;;;;;;21.82;47.19;98795.91;4982578;28;20109;-74
2023/11/08 08:37:55;;;;;;;13.43;4.70;;;;;;;21.74;46.92;98788.06;4997464;28;20077;-74
2023/11/08 08:40:21;;;;;;;13.10;5.45;;;;;;;21.79;46.85;98807.75;4965863;28;20116;-75
2023/11/08 08:42:47;;;;;;;13.38;5.10;;;;;;;21.86;47.02;98798.00;5015506;28;20033;-73
2023/11/08 08:45:13;;;;;;;11.00;4.78;;;;;;;21.81;47.12;98795.09;4998030;28;20478;-75
2023/11/08 08:47:39;;;;;;;10.32;4.85;;;;;;;21.82;47.02;98785.28;4998266;28;20030;-74
2023/11/08 08:50:06;;;;;;;9.07;4.40;;;;;;;22.05;46.71;98777.13;4981751;28;20026;-73
2023/11/08 08:52:31;;;;;;;14.10;4.65;;;;;;;21.98;46.81;98776.25;4998002;28;20022;-74
2023/11/08 08:54:57;;;;;;;15.30;4.97;;;;;;;22.26;46.46;98786.13;4981698;28;20382;-73
2023/11/08 08:57:23;;;;;;;11.07;4.75;;;;;;;22.36;46.17;98786.63;4997855;28;20033;-73
2023/11/08 08:59:48;;;;;;;10.65;4.75;;;;;;;22.70;45.58;98774.41;4997846;28;20527;-74
2023/11/08 09:02:14;;;;;;;12.85;5.05;;;;;;;22.93;44.99;98759.00;4981568;28;20088;-73
2023/11/08 09:04:39;;;;;;;10.35;4.40;;;;;;;22.89;45.12;98756.94;4997829;28;20030;-73
2023/11/08 09:07:05;;;;;;;12.25;5.00;;;;;;;22.86;45.27;98750.16;4997581;28;20204;-75
2023/11/08 09:09:30;;;;;;;10.27;5.22;;;;;;;23.04;44.85;98749.66;4981279;28;20026;-74
2023/11/08 09:11:57;;;;;;;13.32;5.72;;;;;;;22.98;45.03;98749.59;5015091;28;20026;-73
2023/11/08 09:14:23;;;;;;;13.63;5.60;;;;;;;22.94;45.25;98734.03;4997487;28;20056;-74
2023/11/08 09:16:49;;;;;;;16.48;5.47;;;;;;;22.87;45.25;98727.03;4997538;28;20042;-74
2023/11/08 09:19:14;;;;;;;11.70;5.93;;;;;;;22.85;45.18;98727.22;4980728;28;20478;-77
2023/11/08 09:21:40;;;;;;;10.63;5.95;;;;;;;22.90;45.15;98713.34;4997149;28;20097;-75
2023/11/08 09:24:06;;;;;;;11.35;6.10;;;;;;;23.04;45.17;98724.84;4980930;28;20045;-74
2023/11/08 09:26:34;;;;;;;13.98;6.40;;;;;;;22.97;45.37;98724.00;4997396;28;20500;-75
2023/11/08 09:29:00;;;;;;;19.23;6.10;;;;;;;22.93;45.30;98708.44;4980703;28;20042;-74
2023/11/08 09:31:28;;;;;;;14.68;6.53;;;;;;;22.88;45.50;98718.84;4980043;28;20425;-74
2023/11/08 09:33:56;;;;;;;;;;;;;;;22.84;45.85;98719.44;4982062;28;20033;-74
2023/11/08 09:36:22;;;;;;;12.32;6.95;;;;;;;22.77;46.07;98716.72;5014451;28;20400;-74
2023/11/08 09:38:49;;;;;;;20.90;7.80;;;;;;;22.88;45.91;98726.84;4980605;28;20422;-73
2023/11/08 09:41:17;;;;;;;17.73;8.97;;;;;;;22.71;46.21;98730.84;5014597;28;20022;-73
2023/11/08 09:43:42;;;;;;;17.27;9.20;;;;;;;22.64;46.39;98730.78;4981024;28;20109;-74
2023/11/08 09:46:09;;;;;;;25.92;9.90;;;;;;;22.66;46.10;98719.94;4997194;28;20053;-74
2023/11/08 09:48:35;;;;;;;17.05;10.13;;;;;;;22.61;46.22;98720.53;4980650;28;20198;-75
2023/11/08 09:51:02;;;;;;;18.23;10.15;;;;;;;22.53;46.60;98731.31;4997359;28;20038;-76
2023/11/08 09:53:27;;;;;;;21.70;9.82;;;;;;;22.52;46.51;98735.00;4980865;28;20087;-74
2023/11/08 09:55:54;;;;;;;22.60;10.77;;;;;;;22.52;46.53;98733.16;5014557;28;20033;-75
2023/11/08 09:58:20;;;;;;;23.40;11.95;;;;;;;22.55;46.50;98724.81;4980538;28;20707;-73
2023/11/08 10:00:45;;;;;;;26.98;12.93;;;;;;;22.59;46.49;98730.53;4996524;28;20037;-74
2023/11/08 10:03:11;;;;;;;26.17;13.60;;;;;;;22.67;46.40;98727.72;4996317;28;20030;-73
2023/11/08 10:05:37;;;;;;;23.50;12.93;;;;;;;22.88;46.07;98718.00;4980120;28;20099;-73
2023/11/08 10:08:11;;;;;;;32.38;12.77;;;;;;;22.89;46.09;98712.50;4995936;28;20385;-72
2023/11/08 10:10:37;;;;;;;22.90;12.40;;;;;;;22.94;45.99;98717.22;4996061;28;20030;-74
2023/11/08 10:13:06;;;;;;;25.05;12.50;;;;;;;23.28;45.31;98729.69;4980101;28;20408;-73
2023/11/08 10:15:33;;;;;;;22.23;12.13;;;;;;;23.34;45.29;98714.78;5013826;28;20038;-72
2023/11/08 10:17:59;;;;;;;19.73;12.90;;;;;;;23.52;45.08;98718.72;4980698;28;20026;-73
2023/11/08 10:20:27;;;;;;;21.58;12.20;;;;;;;23.61;44.74;98725.47;4996350;28;20026;-76
2023/11/08 10:22:54;;;;;;;25.63;13.25;;;;;;;23.92;43.87;98716.13;4963652;28;20120;-74
2023/11/08 10:25:19;;;;;;;22.85;12.23;;;;;;;24.15;43.59;98707.75;4979638;28;20034;-77
2023/11/08 10:27:45;;;;;;;28.00;13.20;;;;;;;24.47;43.09;98700.72;4995878;28;20508;-73
2023/11/08 10:30:15;;;;;;;24.25;11.48;;;;;;;24.87;42.33;98689.94;4963466;28;20029;-74
2023/11/08 10:32:41;;;;;;;25.13;11.48;;;;;;;24.95;41.94;98678.22;5013479;28;20465;-72
2023/11/08 10:35:19;;;;;;;29.88;11.77;;;;;;;24.97;41.65;98676.19;5013314;28;20397;-73
2023/11/08 10:37:45;;;;;;;;;;;;;;;25.12;41.41;98677.75;4980341;28;20034;-73
2023/11/08 10:40:14;;;;;;;26.13;11.52;;;;;;;25.37;40.65;98659.97;4995796;28;19935;-73
2023/11/08 10:42:41;;;;;;;27.85;11.50;;;;;;;25.46;40.81;98661.34;4979416;28;20105;-75
2023/11/08 10:45:10;;;;;;;28.40;11.30;;;;;;;25.30;40.49;98659.19;4980092;28;20029;-75
2023/11/08 10:47:39;;;;;;;25.23;10.52;;;;;;;25.14;40.79;98649.78;4979497;28;20038;-73
2023/11/08 10:50:06;;;;;;;23.25;10.55;;;;;;;24.95;41.02;98658.72;4979497;28;20459;-73
2023/11/08 10:52:38;;;;;;;23.45;10.40;;;;;;;24.84;41.35;98652.19;4962899;28;20037;-74
2023/11/08 10:55:06;;;;;;;24.42;10.27;;;;;;;24.59;41.93;98634.22;4995581;28;20485;-73
2023/11/08 10:57:32;;;;;;;19.90;9.98;;;;;;;24.36;42.21;98627.47;4995248;28;20088;-74
2023/11/08 11:00:00;;;;;;;22.08;11.35;;;;;;;24.24;42.56;98629.13;4979434;28;20473;-76
2023/11/08 11:02:33;;;;;;;21.50;10.77;;;;;;;23.94;43.16;98634.09;4979464;28;20033;-73
2023/11/08 11:05:03;;;;;;;37.83;11.30;;;;;;;23.71;43.66;98626.50;4995637;28;20096;-75
2023/11/08 11:07:28;;;;;;;27.60;11.52;;;;;;;23.52;44.27;98620.94;4979502;28;20105;-73
2023/11/08 11:09:54;;;;;;;28.50;11.88;;;;;;;23.34;44.44;98626.03;4979081;28;20124;-73
2023/11/08 11:12:32;;;;;;;29.42;12.60;;;;;;;22.97;45.33;98636.97;4995367;28;20167;-74
2023/11/08 11:14:58;;;;;;;26.88;13.48;;;;;;;22.74;45.77;98645.31;4964346;28;20034;-73
2023/11/08 11:17:33;;;;;;;28.55;14.25;;;;;;;22.63;46.09;98645.84;4979365;28;20037;-73
2023/11/08 11:20:02;;;;;;;31.67;13.68;;;;;;;22.47;46.56;98633.69;4978988;28;20030;-73
2023/11/08 11:22:27;;;;;;;30.40;14.18;;;;;;;22.39;46.77;98630.19;4962630;28;20471;-73
2023/11/08 11:24:53;;;;;;;26.30;13.93;;;;;;;22.34;47.05;98634.44;4978523;28;20030;-75